Time;durP1;ratioP1;P1;durP2;ratioP2;P2;SDS_P1;SDS_P2;PMS_P1;PMS_P2;Temp;Humidity;BMP_temperature;BMP_pressure;BME280_temperature;BME280_humidity;BME280_pressure;Samples;Min_cycle;Max_cycle;Signal;HPM_P1;HPM_P2
2023/01/08 00:00:36;;;;;;;;;;;;;;;26.20;41.95;93805.13;4983374;28;6962;-72
2023/01/08 00:03:02;;;;;;;;;;;;;;;26.20;41.46;93796.88;4970365;28;9329;-72
2023/01/08 00:05:28;;;;;;;;;;;;;;;26.21;41.13;93792.84;4985888;28;7222;-72
2023/01/08 00:07:53;;;;;;;;;;;;;;;26.20;41.80;93791.34;4970849;28;7035;-72
2023/01/08 00:10:22;;;;;;;;;;;;;;;26.23;41.09;93793.06;4968735;28;7263;-72
2023/01/08 00:12:48;;;;;;;;;;;;;;;26.22;41.44;93786.03;4961102;28;6993;-72
2023/01/08 00:15:14;;;;;;;;;;;;;;;26.22;41.63;93792.31;4969630;28;8867;-72
2023/01/08 00:17:42;;;;;;;;;;;;;;;26.22;41.57;93783.28;4966219;28;7260;-72
2023/01/08 00:20:08;;;;;;;;;;;;;;;26.19;41.49;93787.13;4970125;28;7116;-72
2023/01/08 00:22:37;;;;;;;;;;;;;;;26.21;41.27;93777.03;4979548;28;7271;-72
2023/01/08 00:25:04;;;;;;;;;;;;;;;26.20;41.52;93774.81;4962632;28;9110;-72
2023/01/08 00:27:30;;;;;;;;;;;;;;;26.19;41.44;93770.59;4975048;28;9370;-72
2023/01/08 00:29:56;;;;;;;;;;;;;;;26.21;40.88;93770.78;4970635;28;7495;-72
2023/01/08 00:32:22;;;;;;;;;;;;;;;26.23;41.63;93768.25;4972144;28;9136;-72
2023/01/08 00:34:48;;;;;;;;;;;;;;;26.21;41.30;93765.28;4968582;28;7690;-72
2023/01/08 00:37:17;;;;;;;;;;;;;;;26.21;41.69;93757.00;4967323;28;7112;-72
2023/01/08 00:39:44;;;;;;;;;;;;;;;26.21;41.10;93757.00;4973853;28;7283;-72
2023/01/08 00:42:10;;;;;;;;;;;;;;;26.20;41.95;93750.00;4969476;28;7358;-72
2023/01/08 00:44:36;;;;;;;;;;;;;;;26.20;41.24;93738.97;4982826;28;9029;-72
2023/01/08 00:47:03;;;;;;;;;;;;;;;26.19;42.28;93729.97;4982582;28;7129;-72
2023/01/08 00:49:29;;;;;;;;;;;;;;;26.19;41.13;93721.69;4971125;28;7026;-72
2023/01/08 00:51:57;;;;;;;;;;;;;;;26.21;41.73;93719.13;4971991;28;7368;-72
2023/01/08 00:54:25;;;;;;;;;;;;;;;26.18;40.99;93709.19;4968866;28;6954;-72
2023/01/08 00:56:54;;;;;;;;;;;;;;;26.16;41.24;93723.47;4968782;28;7874;-72
2023/01/08 00:59:20;;;;;;;;;;;;;;;26.14;41.65;93720.53;4985820;28;8425;-72
2023/01/08 01:01:53;;;;;;;;;;;;;;;26.15;41.61;93724.03;4986980;28;9149;-71
2023/01/08 01:04:20;;;;;;;;;;;;;;;26.13;41.87;93723.81;4971436;28;8453;-71
2023/01/08 01:06:46;;;;;;;;;;;;;;;26.14;41.41;93722.56;4975586;28;7644;-72
2023/01/08 01:09:11;;;;;;;;;;;;;;;26.14;41.80;93726.03;4971904;28;9446;-71
2023/01/08 01:11:37;;;;;;;;;;;;;;;26.14;42.02;93728.06;4975586;28;9210;-72
2023/01/08 01:14:03;;;;;;;;;;;;;;;26.14;40.87;93734.31;4968901;28;8985;-72
2023/01/08 01:16:59;;;;;;;;;;;;;;;26.14;41.55;93741.84;4974102;28;8208;-72
2023/01/08 01:19:33;;;;;;;;;;;;;;;26.14;41.58;93730.81;4968613;28;8908;-72
2023/01/08 01:22:09;;;;;;;;;;;;;;;26.14;41.63;93733.59;4990234;28;7026;-72
2023/01/08 01:24:42;;;;;;;;;;;;;;;26.12;41.43;93728.56;4973837;28;9022;-72
2023/01/08 01:27:15;;;;;;;;;;;;;;;26.13;41.21;93729.31;4974250;28;7334;-72
2023/01/08 01:29:44;;;;;;;;;;;;;;;26.12;41.90;93728.56;4970865;28;9486;-72
2023/01/08 01:32:10;;;;;;;;;;;;;;;26.11;41.53;93735.38;4984267;28;7123;-72
2023/01/08 01:34:35;;;;;;;;;;;;;;;26.10;41.55;93736.63;4989138;28;9345;-72
2023/01/08 01:37:03;;;;;;;;;;;;;;;26.12;41.70;93739.59;4971326;28;7339;-72
2023/01/08 01:39:31;;;;;;;;;;;;;;;26.13;41.81;93730.06;4983702;28;7229;-72
2023/01/08 01:41:57;;;;;;;;;;;;;;;26.14;41.76;93730.81;4983959;28;9034;-72
2023/01/08 01:44:39;;;;;;;;;;;;;;;26.15;41.88;93746.81;4969183;28;7188;-71
2023/01/08 01:47:27;;;;;;;;;;;;;;;26.14;41.77;93742.56;4970609;28;9168;-72
2023/01/08 01:50:04;;;;;;;;;;;;;;;26.12;41.95;93741.63;4970729;28;7386;-72
2023/01/08 01:52:35;;;;;;;;;;;;;;;26.10;41.04;93744.91;4967382;28;7000;-72
2023/01/08 01:55:05;;;;;;;;;;;;;;;26.11;41.17;93743.66;4971802;28;9139;-72
2023/01/08 01:57:35;;;;;;;;;;;;;;;26.10;41.06;93725.63;4969779;28;8993;-72
2023/01/08 02:00:05;;;;;;;;;;;;;;;26.10;41.90;93713.84;4976705;28;9510;-72
2023/01/08 02:02:33;;;;;;;;;;;;;;;26.11;41.18;93715.34;4971484;28;9133;-72
2023/01/08 02:05:12;;;;;;;;;;;;;;;26.12;41.89;93716.84;4973452;28;7376;-72
2023/01/08 02:08:17;;;;;;;;;;;;;;;26.10;41.71;93720.09;4973928;28;8246;-72
2023/01/08 02:11:10;;;;;;;;;;;;;;;26.08;41.40;93703.34;4954482;28;7189;-72
2023/01/08 02:13:55;;;;;;;;;;;;;;;26.08;41.48;93697.84;4974338;28;7263;-72
2023/01/08 02:16:45;;;;;;;;;;;;;;;26.08;41.88;93692.34;4973495;28;7125;-72
2023/01/08 02:19:50;;;;;;;;;;;;;;;26.09;41.09;93679.31;4984188;28;7296;-72
2023/01/08 02:22:46;;;;;;;;;;;;;;;26.07;41.50;93673.56;4979758;28;8175;-72
2023/01/08 02:25:23;;;;;;;;;;;;;;;26.07;41.96;93666.03;4969717;28;7048;-72
2023/01/08 02:28:15;;;;;;;;;;;;;;;26.06;41.44;93656.28;4962015;28;9068;-72
2023/01/08 02:30:43;;;;;;;;;;;;;;;26.04;41.65;93653.31;4972828;28;7280;-72
2023/01/08 02:33:10;;;;;;;;;;;;;;;26.05;41.14;93643.03;4968860;28;7298;-72
2023/01/08 02:35:43;;;;;;;;;;;;;;;26.05;41.65;93634.75;4970196;28;9019;-72
2023/01/08 02:38:14;;;;;;;;;;;;;;;26.06;41.82;93623.19;4980061;28;9467;-72
2023/01/08 02:41:05;;;;;;;;;;;;;;;26.06;41.18;93603.91;4975650;28;7296;-72
2023/01/08 02:44:01;;;;;;;;;;;;;;;26.05;41.22;93583.16;4915005;29;9037;-72
2023/01/08 02:46:40;;;;;;;;;;;;;;;26.04;42.16;93581.66;4910114;29;7376;-72
2023/01/08 02:49:12;;;;;;;;;;;;;;;26.02;41.83;93575.94;4923399;29;7176;-72
2023/01/08 02:51:50;;;;;;;;;;;;;;;26.01;41.73;93573.72;4926489;29;8710;-72
2023/01/08 02:54:24;;;;;;;;;;;;;;;26.00;41.50;93578.50;4927828;29;7027;-72
2023/01/08 02:57:02;;;;;;;;;;;;;;;26.00;41.93;93570.22;4928056;29;9535;-72
2023/01/08 02:59:36;;;;;;;;;;;;;;;26.00;41.96;93570.22;4928630;29;9146;-72
2023/01/08 03:02:03;;;;;;;;;;;;;;;25.99;41.34;93554.94;4910430;29;8745;-72
2023/01/08 03:04:41;;;;;;;;;;;;;;;25.97;41.44;93560.25;4912713;29;9771;-72
2023/01/08 03:07:10;;;;;;;;;;;;;;;26.00;42.11;93555.69;4903867;29;7020;-72
2023/01/08 03:09:36;;;;;;;;;;;;;;;26.00;42.12;93556.44;4927609;29;9044;-70
2023/01/08 03:12:39;;;;;;;;;;;;;;;25.99;42.35;93554.94;4926346;29;8705;-72
2023/01/08 03:15:24;;;;;;;;;;;;;;;26.01;41.68;93535.88;4922826;29;8837;-72
2023/01/08 03:17:58;;;;;;;;;;;;;;;26.01;41.68;93535.16;4907746;29;7511;-71
2023/01/08 03:20:27;;;;;;;;;;;;;;;26.03;42.03;93532.59;4934761;28;7127;-71
2023/01/08 03:23:07;;;;;;;;;;;;;;;26.01;41.61;93527.59;4983255;28;9516;-71
2023/01/08 03:25:38;;;;;;;;;;;;;;;25.98;42.18;93530.69;4965239;28;7250;-72
2023/01/08 03:28:14;;;;;;;;;;;;;;;25.97;41.43;93538.22;4979715;28;7339;-71
2023/01/08 03:30:45;;;;;;;;;;;;;;;25.99;41.59;93537.69;4965259;28;9037;-71
2023/01/08 03:33:16;;;;;;;;;;;;;;;25.99;41.58;93538.41;4964446;28;7456;-72
2023/01/08 03:35:48;;;;;;;;;;;;;;;26.00;41.58;93536.41;4968915;28;8827;-71
2023/01/08 03:38:27;;;;;;;;;;;;;;;26.00;41.48;93550.94;4967583;28;7115;-71
2023/01/08 03:41:03;;;;;;;;;;;;;;;25.99;41.37;93538.41;4958144;28;9096;-72
2023/01/08 03:43:32;;;;;;;;;;;;;;;25.97;41.83;93540.97;4966742;28;7029;-71
2023/01/08 03:46:04;;;;;;;;;;;;;;;25.97;41.33;93535.47;4968333;28;7025;-72
2023/01/08 03:48:34;;;;;;;;;;;;;;;25.97;41.62;93540.97;4956985;28;7261;-71
2023/01/08 03:51:01;;;;;;;;;;;;;;;25.94;41.96;93535.78;4971074;28;7243;-71
2023/01/08 03:53:27;;;;;;;;;;;;;;;25.96;41.98;93539.50;4978751;28;7250;-72
2023/01/08 03:55:57;;;;;;;;;;;;;;;25.98;42.02;93545.22;4967162;28;7305;-72
2023/01/08 03:58:25;;;;;;;;;;;;;;;25.95;41.44;93535.25;4969412;28;9080;-72
2023/01/08 04:00:51;;;;;;;;;;;;;;;25.96;41.74;93547.75;4968382;28;7267;-72
2023/01/08 04:03:18;;;;;;;;;;;;;;;25.96;42.11;93545.00;4967553;28;7978;-72
2023/01/08 04:05:44;;;;;;;;;;;;;;;25.94;41.57;93553.06;4980869;28;7018;-72
2023/01/08 04:08:12;;;;;;;;;;;;;;;25.95;41.32;93549.03;4978382;28;7742;-72
2023/01/08 04:10:38;;;;;;;;;;;;;;;25.95;41.99;93543.50;4980013;28;7261;-72
2023/01/08 04:13:07;;;;;;;;;;;;;;;25.89;41.42;93559.44;4966127;28;9131;-72
2023/01/08 04:15:33;;;;;;;;;;;;;;;25.92;42.47;93577.66;4967577;28;9029;-72
2023/01/08 04:18:01;;;;;;;;;;;;;;;25.91;42.12;93572.66;4970825;28;9149;-72
2023/01/08 04:20:29;;;;;;;;;;;;;;;25.89;41.73;93573.22;4965772;28;7187;-72
2023/01/08 04:22:55;;;;;;;;;;;;;;;25.91;41.85;93578.91;4967478;28;9065;-72
2023/01/08 04:25:21;;;;;;;;;;;;;;;25.91;41.94;93580.94;4972251;28;9107;-72
2023/01/08 04:27:47;;;;;;;;;;;;;;;25.91;42.06;93576.16;4987620;28;7098;-72
2023/01/08 04:30:13;;;;;;;;;;;;;;;25.88;41.90;93588.25;4977376;28;7242;-72
2023/01/08 04:32:39;;;;;;;;;;;;;;;25.89;41.42;93602.75;4971814;28;9146;-72
2023/01/08 04:35:05;;;;;;;;;;;;;;;25.87;42.34;93594.28;4968278;28;8709;-72
2023/01/08 04:37:31;;;;;;;;;;;;;;;25.89;42.41;93602.75;4961339;28;7018;-72
2023/01/08 04:39:56;;;;;;;;;;;;;;;25.89;41.87;93606.25;4966622;28;7663;-71
2023/01/08 04:42:22;;;;;;;;;;;;;;;25.90;41.79;93604.97;4987569;28;9255;-72
2023/01/08 04:44:48;;;;;;;;;;;;;;;25.88;41.65;93618.53;4978572;28;9036;-71
2023/01/08 04:47:17;;;;;;;;;;;;;;;25.86;42.31;93612.81;4969570;28;9633;-71
2023/01/08 04:49:43;;;;;;;;;;;;;;;25.86;41.94;93609.34;4975893;28;8642;-72
2023/01/08 04:52:09;;;;;;;;;;;;;;;25.82;41.96;93606.16;4965964;28;7018;-72
2023/01/08 04:54:35;;;;;;;;;;;;;;;25.81;42.61;93605.44;4980483;28;9079;-72
2023/01/08 04:57:01;;;;;;;;;;;;;;;25.83;41.82;93602.88;4970402;28;7159;-72
2023/01/08 04:59:29;;;;;;;;;;;;;;;25.81;41.70;93591.66;4973072;28;7224;-72
2023/01/08 05:02:02;;;;;;;;;;;;;;;25.85;42.34;93600.34;4966378;28;9641;-72
2023/01/08 05:04:38;;;;;;;;;;;;;;;25.83;42.51;93589.09;4975254;28;7296;-71
2023/01/08 05:07:04;;;;;;;;;;;;;;;25.82;41.83;93590.38;4990752;28;7600;-71
2023/01/08 05:09:33;;;;;;;;;;;;;;;25.80;42.07;93594.94;4964979;28;9157;-71
2023/01/08 05:12:02;;;;;;;;;;;;;;;25.79;41.71;93599.72;4974359;28;7269;-72
2023/01/08 05:14:34;;;;;;;;;;;;;;;25.82;42.05;93601.38;4966518;28;9769;-71
2023/01/08 05:17:18;;;;;;;;;;;;;;;25.84;42.46;93606.34;4955514;28;7377;-71
2023/01/08 05:19:55;;;;;;;;;;;;;;;25.80;42.21;93606.69;4989051;28;9061;-72
2023/01/08 05:22:21;;;;;;;;;;;;;;;25.79;41.99;93607.97;4970466;28;9051;-71
2023/01/08 05:24:48;;;;;;;;;;;;;;;25.76;42.61;93611.78;4970157;28;7026;-72
2023/01/08 05:27:51;;;;;;;;;;;;;;;25.77;42.57;93615.28;4964658;28;7026;-71
2023/01/08 05:30:20;;;;;;;;;;;;;;;25.74;42.03;93611.56;4916081;29;8229;-71
2023/01/08 05:32:46;;;;;;;;;;;;;;;25.73;42.56;93606.59;4910296;29;7827;-71
2023/01/08 05:35:12;;;;;;;;;;;;;;;25.76;42.51;93609.03;4922324;28;7182;-71
2023/01/08 05:37:38;;;;;;;;;;;;;;;25.77;41.83;93609.78;4924962;29;9146;-71
2023/01/08 05:40:17;;;;;;;;;;;;;;;25.79;42.35;93607.22;4926125;29;7050;-71
2023/01/08 05:42:52;;;;;;;;;;;;;;;25.76;42.03;93595.25;4922099;29;7112;-71
2023/01/08 05:45:19;;;;;;;;;;;;;;;25.77;41.64;93594.00;4926740;29;7338;-72
2023/01/08 05:47:50;;;;;;;;;;;;;;;25.76;41.87;93586.25;4911932;29;9259;-71
2023/01/08 05:50:16;;;;;;;;;;;;;;;25.75;41.75;93585.50;4905355;29;9521;-71
2023/01/08 05:53:13;;;;;;;;;;;;;;;25.73;41.83;93596.31;4928708;28;9696;-72
2023/01/08 05:55:57;;;;;;;;;;;;;;;25.75;42.54;93607.53;4891850;29;8838;-72
2023/01/08 05:58:23;;;;;;;;;;;;;;;25.72;42.54;93603.09;4888559;29;7508;-71
2023/01/08 06:00:49;;;;;;;;;;;;;;;25.73;42.03;93610.06;4903126;29;9025;-71
2023/01/08 06:03:19;;;;;;;;;;;;;;;25.73;42.04;93614.88;4897017;29;7282;-71
2023/01/08 06:05:45;;;;;;;;;;;;;;;25.71;42.15;93612.63;4934913;28;9379;-71
2023/01/08 06:08:13;;;;;;;;;;;;;;;25.71;42.03;93615.38;4933215;29;7210;-71
2023/01/08 06:11:05;;;;;;;;;;;;;;;25.71;41.67;93618.13;4924452;28;7176;-71
2023/01/08 06:13:36;;;;;;;;;;;;;;;25.68;42.40;93610.94;4911590;29;7218;-71
2023/01/08 06:16:11;;;;;;;;;;;;;;;25.68;42.27;93612.94;4929390;28;9181;-71
2023/01/08 06:18:37;;;;;;;;;;;;;;;25.67;42.51;93616.97;4910185;29;9408;-71
2023/01/08 06:21:04;;;;;;;;;;;;;;;25.66;42.19;93616.25;4909101;29;7199;-71
2023/01/08 06:23:33;;;;;;;;;;;;;;;25.65;42.01;93620.25;4930891;29;8895;-71
2023/01/08 06:26:02;;;;;;;;;;;;;;;25.65;41.73;93614.00;4912557;29;9802;-71
2023/01/08 06:28:32;;;;;;;;;;;;;;;25.64;42.45;93601.50;4930647;29;7885;-71
2023/01/08 06:30:59;;;;;;;;;;;;;;;25.64;41.48;93602.25;4911541;28;7222;-71
2023/01/08 06:33:25;;;;;;;;;;;;;;;25.63;42.37;93594.50;4969595;28;7403;-71
2023/01/08 06:35:53;;;;;;;;;;;;;;;25.60;42.03;93581.81;4984548;28;8538;-71
2023/01/08 06:38:22;;;;;;;;;;;;;;;25.59;42.11;93575.56;4978778;28;7512;-71
2023/01/08 06:40:50;;;;;;;;;;;;;;;25.60;42.27;93571.53;4969215;28;7411;-71
2023/01/08 06:43:17;;;;;;;;;;;;;;;25.61;41.96;93573.03;4967267;28;7584;-71
2023/01/08 06:45:52;;;;;;;;;;;;;;;25.60;41.71;93579.78;4962209;28;8018;-71
2023/01/08 06:48:21;;;;;;;;;;;;;;;25.59;42.09;93583.06;4984864;28;7658;-71
2023/01/08 06:50:49;;;;;;;;;;;;;;;25.60;41.95;93581.81;4967582;28;7294;-71
2023/01/08 06:53:17;;;;;;;;;;;;;;;25.59;41.90;93577.56;4967707;28;9437;-71
2023/01/08 06:55:45;;;;;;;;;;;;;;;25.57;41.68;93569.84;4968522;28;9344;-71
2023/01/08 06:58:15;;;;;;;;;;;;;;;25.59;42.56;93572.06;4967301;28;8955;-72
2023/01/08 07:00:43;;;;;;;;;;;;;;;25.59;41.77;93580.31;4965034;28;9205;-72
2023/01/08 07:03:11;;;;;;;;;;;;;;;25.58;42.64;93576.81;4969142;28;7046;-71
2023/01/08 07:05:37;;;;;;;;;;;;;;;25.57;42.61;93569.84;4969205;28;7128;-71
2023/01/08 07:08:09;;;;;;;;;;;;;;;25.62;41.86;93552.47;4954831;28;7265;-71
2023/01/08 07:10:37;;;;;;;;;;;;;;;25.65;42.08;93543.16;4972674;28;6975;-70
2023/01/08 07:13:03;;;;;;;;;;;;;;;25.67;41.78;93534.34;4960118;28;9683;-70
2023/01/08 07:15:29;;;;;;;;;;;;;;;25.69;42.21;93521.53;4963552;28;7117;-71
2023/01/08 07:17:57;;;;;;;;;;;;;;;25.71;42.27;93524.50;4946880;28;7278;-71
2023/01/08 07:20:23;;;;;;;;;;;;;;;25.74;41.91;93517.19;4962431;28;8423;-70
2023/01/08 07:22:48;;;;;;;;;;;;;;;25.76;42.12;93515.38;4964707;28;7561;-70
2023/01/08 07:25:22;;;;;;;;;;;;;;;25.78;42.00;93512.81;4966548;28;7279;-70
2023/01/08 07:27:51;;;;;;;;;;;;;;;25.79;42.10;93519.84;4969719;28;7031;-70
2023/01/08 07:30:17;;;;;;;;;;;;;;;25.81;41.81;93542.06;4965227;28;8973;-70
2023/01/08 07:32:42;;;;;;;;;;;;;;;25.81;41.42;93542.06;4966591;28;9032;-71
2023/01/08 07:35:08;;;;;;;;;;;;;;;25.80;41.17;93535.06;4974194;28;7236;-70
2023/01/08 07:37:38;;;;;;;;;;;;;;;25.83;41.48;93519.50;4965179;28;8652;-70
2023/01/08 07:40:07;;;;;;;;;;;;;;;25.83;41.15;93536.78;4964154;28;8198;-70
2023/01/08 07:42:46;;;;;;;;;;;;;;;25.83;41.53;93544.28;4981397;28;7244;-70
2023/01/08 07:45:14;;;;;;;;;;;;;;;25.82;41.45;93554.56;4958760;28;7176;-70
2023/01/08 07:48:16;;;;;;;;;;;;;;;25.82;41.58;93562.06;4970756;28;7083;-70
2023/01/08 07:51:00;;;;;;;;;;;;;;;25.82;41.24;93556.56;4912760;29;7365;-70
2023/01/08 07:53:54;;;;;;;;;;;;;;;25.78;41.84;93569.94;4923996;29;8771;-70
2023/01/08 07:56:21;;;;;;;;;;;;;;;25.74;41.15;93578.53;4908879;29;7252;-70
2023/01/08 07:58:48;;;;;;;;;;;;;;;25.72;42.11;93586.56;4929947;28;7286;-70
2023/01/08 08:01:14;;;;;;;;;;;;;;;25.70;42.06;93597.38;4933529;28;7303;-70
2023/01/08 08:03:41;;;;;;;;;;;;;;;25.68;42.48;93599.94;4924709;28;9506;-71
2023/01/08 08:06:22;;;;;;;;;;;;;;;25.71;42.19;93604.34;4943036;28;8790;-71
2023/01/08 08:09:08;;;;;;;;;;;;;;;25.72;41.94;93603.09;4920655;29;7581;-70
2023/01/08 08:11:34;;;;;;;;;;;;;;;25.74;41.82;93630.84;4939015;28;7436;-69
2023/01/08 08:14:01;;;;;;;;;;;;;;;25.75;42.69;93626.09;4935751;28;7011;-71
2023/01/08 08:16:27;;;;;;;;;;;;;;;25.76;42.61;93622.81;4927552;29;9186;-70
2023/01/08 08:18:53;;;;;;;;;;;;;;;25.79;41.46;93626.50;4920400;29;7490;-71
2023/01/08 08:21:22;;;;;;;;;;;;;;;25.80;41.92;93631.47;4907182;29;8694;-71
2023/01/08 08:23:48;;;;;;;;;;;;;;;25.82;42.08;93631.69;4910779;29;8987;-72
2023/01/08 08:26:14;;;;;;;;;;;;;;;25.79;42.94;93623.75;4948661;28;7092;-72
2023/01/08 08:28:40;;;;;;;;;;;;;;;25.79;42.55;93624.50;4984871;28;7017;-70
2023/01/08 08:31:06;;;;;;;;;;;;;;;25.81;42.22;93635.00;4961439;28;7113;-71
2023/01/08 08:33:32;;;;;;;;;;;;;;;25.82;42.71;93639.22;4967166;28;7247;-71
2023/01/08 08:35:58;;;;;;;;;;;;;;;25.85;42.46;93643.66;4971587;28;7459;-71
2023/01/08 08:38:30;;;;;;;;;;;;;;;25.85;43.50;93638.91;4977728;28;7153;-72
2023/01/08 08:40:58;;;;;;;;;;;;;;;25.87;42.12;93630.09;4974612;28;8237;-72
2023/01/08 08:43:29;;;;;;;;;;;;;;;25.88;42.36;93635.06;4984706;28;7366;-72
2023/01/08 08:45:59;;;;;;;;;;;;;;;25.88;43.04;93637.84;4967940;28;7590;-72
2023/01/08 08:48:28;;;;;;;;;;;;;;;25.89;42.23;93633.81;4966678;28;8994;-71
2023/01/08 08:50:56;;;;;;;;;;;;;;;25.90;42.15;93640.78;4959930;28;9527;-72
2023/01/08 08:53:31;;;;;;;;;;;;;;;25.90;42.07;93634.56;4960874;28;7043;-71
2023/01/08 08:56:15;;;;;;;;;;;;;;;25.91;42.62;93625.75;4983191;28;9414;-71
2023/01/08 08:58:41;;;;;;;;;;;;;;;25.89;42.49;93613.78;4963189;28;7018;-72
2023/01/08 09:01:38;;;;;;;;;;;;;;;25.89;42.95;93600.75;4967778;28;9228;-71
2023/01/08 09:04:04;;;;;;;;;;;;;;;25.90;42.36;93623.53;4906801;29;8976;-70
2023/01/08 09:06:31;;;;;;;;;;;;;;;25.91;42.35;93634.03;4897199;29;7041;-71
2023/01/08 09:08:58;;;;;;;;;;;;;;;25.90;42.25;93624.25;4911415;29;7242;-71
2023/01/08 09:11:27;;;;;;;;;;;;;;;25.92;41.84;93610.72;4889854;29;8997;-71
2023/01/08 09:13:53;;;;;;;;;;;;;;;25.97;42.40;93614.63;4888896;29;7052;-71
2023/01/08 09:16:22;;;;;;;;;;;;;;;25.96;41.58;93604.88;4907164;29;8757;-70
2023/01/08 09:18:50;;;;;;;;;;;;;;;25.96;41.82;93582.84;4909344;29;7255;-71
2023/01/08 09:21:20;;;;;;;;;;;;;;;25.95;42.92;93595.88;4909013;29;7169;-71
2023/01/08 09:23:49;;;;;;;;;;;;;;;25.94;42.04;93586.13;4890646;29;7290;-72
2023/01/08 09:26:15;;;;;;;;;;;;;;;25.88;42.20;93588.25;4887803;29;7034;-72
2023/01/08 09:28:41;;;;;;;;;;;;;;;25.92;42.08;93601.72;4892442;29;7027;-70
2023/01/08 09:31:09;;;;;;;;;;;;;;;25.90;41.20;93604.97;4903075;29;8946;-71
2023/01/08 09:33:35;;;;;;;;;;;;;;;25.90;41.92;93604.25;4893924;29;9504;-72
2023/01/08 09:36:01;;;;;;;;;;;;;;;25.89;42.28;93616.53;4903836;29;7262;-72
2023/01/08 09:38:27;;;;;;;;;;;;;;;25.85;41.91;93608.59;4890966;29;7014;-70
2023/01/08 09:40:58;;;;;;;;;;;;;;;25.91;41.60;93614.00;4932915;28;7157;-70
2023/01/08 09:43:29;;;;;;;;;;;;;;;25.90;42.42;93610.50;4965920;28;7346;-70
2023/01/08 09:46:08;;;;;;;;;;;;;;;25.90;41.83;93610.50;4980285;28;7239;-70
2023/01/08 09:48:45;;;;;;;;;;;;;;;25.88;41.62;93609.56;4979552;28;7256;-71
2023/01/08 09:51:19;;;;;;;;;;;;;;;25.89;42.05;93603.50;4965894;28;9143;-69
2023/01/08 09:53:56;;;;;;;;;;;;;;;25.90;42.25;93607.72;4958392;28;9386;-71
2023/01/08 09:56:25;;;;;;;;;;;;;;;25.90;41.78;93607.00;4968817;28;7260;-71
2023/01/08 09:58:55;;;;;;;;;;;;;;;25.89;42.15;93602.75;4968105;28;8837;-71
2023/01/08 10:01:40;;;;;;;;;;;;;;;25.88;42.19;93604.78;4965580;28;8713;-72
2023/01/08 10:04:13;;;;;;;;;;;;;;;25.87;42.45;93599.81;4960761;28;7107;-72
2023/01/08 10:06:50;;;;;;;;;;;;;;;25.82;42.25;93593.13;4975447;28;7882;-72
2023/01/08 10:09:24;;;;;;;;;;;;;;;25.79;42.43;93596.97;4983265;28;7035;-72
2023/01/08 10:11:58;;;;;;;;;;;;;;;25.76;43.06;93589.75;4965504;28;8939;-72
2023/01/08 10:14:31;;;;;;;;;;;;;;;25.79;42.73;93585.94;4967714;28;9033;-71
2023/01/08 10:17:16;;;;;;;;;;;;;;;25.76;43.29;93587.00;4964233;28;7082;-72
2023/01/08 10:19:54;;;;;;;;;;;;;;;25.75;43.50;93580.00;4973845;28;7050;-71
2023/01/08 10:22:32;;;;;;;;;;;;;;;25.76;43.22;93580.75;4977830;28;7276;-71
2023/01/08 10:25:22;;;;;;;;;;;;;;;25.75;44.18;93579.28;4974348;28;8735;-72
2023/01/08 10:27:57;;;;;;;;;;;;;;;25.72;43.98;93567.28;4972220;28;7602;-71
2023/01/08 10:30:29;;;;;;;;;;;;;;;25.74;44.20;93556.47;4973855;28;9576;-71
2023/01/08 10:33:02;;;;;;;;;;;;;;;25.71;44.49;93552.03;4969465;28;9194;-71
2023/01/08 10:35:36;;;;;;;;;;;;;;;25.70;44.45;93553.31;4965995;28;9840;-72
2023/01/08 10:38:04;;;;;;;;;;;;;;;25.70;43.83;93550.56;4973968;28;7031;-71
2023/01/08 10:40:41;;;;;;;;;;;;;;;25.71;44.81;93541.00;4971587;28;9048;-71
2023/01/08 10:43:12;;;;;;;;;;;;;;;25.71;44.61;93552.03;4967635;28;7128;-72
2023/01/08 10:45:42;;;;;;;;;;;;;;;25.72;45.06;93547.28;4973044;28;9029;-71
2023/01/08 10:48:19;;;;;;;;;;;;;;;25.70;45.00;93539.53;4969503;28;7146;-71
2023/01/08 10:50:52;;;;;;;;;;;;;;;25.70;45.13;93539.53;4979033;28;9596;-71
2023/01/08 10:53:30;;;;;;;;;;;;;;;25.71;45.18;93523.78;4965229;28;7361;-71
2023/01/08 10:55:59;;;;;;;;;;;;;;;25.71;45.10;93521.72;4967412;28;9074;-71
2023/01/08 10:58:28;;;;;;;;;;;;;;;25.72;45.24;93522.47;4962281;28;7114;-71
2023/01/08 11:01:14;;;;;;;;;;;;;;;25.71;44.30;93507.97;4972297;28;9360;-71
2023/01/08 11:03:43;;;;;;;;;;;;;;;25.71;45.06;93504.50;4968288;28;8729;-72
2023/01/08 11:06:21;;;;;;;;;;;;;;;25.69;44.22;93498.75;4955456;28;7485;-71
2023/01/08 11:08:54;;;;;;;;;;;;;;;25.68;45.08;93486.25;4966465;28;9391;-71
2023/01/08 11:11:21;;;;;;;;;;;;;;;25.67;44.98;93482.00;4967186;28;7444;-71
2023/01/08 11:14:04;;;;;;;;;;;;;;;25.67;44.24;93468.25;4973273;28;7238;-71
2023/01/08 11:16:36;;;;;;;;;;;;;;;25.65;44.41;93460.53;4981967;28;8927;-71
2023/01/08 11:19:04;;;;;;;;;;;;;;;25.65;44.57;93463.28;4981047;28;7085;-71
2023/01/08 11:21:35;;;;;;;;;;;;;;;25.65;44.80;93455.03;4960437;28;7332;-71
2023/01/08 11:24:15;;;;;;;;;;;;;;;25.68;44.00;93442.19;4967138;28;7046;-71
2023/01/08 11:26:47;;;;;;;;;;;;;;;25.66;44.75;93437.22;4956624;28;7363;-71
2023/01/08 11:29:26;;;;;;;;;;;;;;;25.68;44.11;93431.94;4966261;28;6975;-71
2023/01/08 11:32:27;;;;;;;;;;;;;;;25.71;45.02;93424.63;4962656;28;7489;-71
2023/01/08 11:34:57;;;;;;;;;;;;;;;25.70;44.32;93415.63;4869217;29;7252;-70
2023/01/08 11:37:25;;;;;;;;;;;;;;;25.71;44.88;93408.09;4873674;29;7143;-70
2023/01/08 11:39:53;;;;;;;;;;;;;;;25.70;45.92;93390.81;4880339;29;7052;-71
2023/01/08 11:42:42;;;;;;;;;;;;;;;25.69;46.25;93388.59;4871153;29;7023;-70
2023/01/08 11:45:43;;;;;;;;;;;;;;;25.69;45.75;93392.09;4881075;29;8675;-71
2023/01/08 11:48:45;;;;;;;;;;;;;;;25.69;46.16;93370.06;4875032;29;9015;-71
2023/01/08 11:51:46;;;;;;;;;;;;;;;25.71;45.84;93362.00;4826075;29;8440;-71
2023/01/08 11:54:30;;;;;;;;;;;;;;;25.73;45.40;93355.97;4783228;30;9093;-71
2023/01/08 11:57:24;;;;;;;;;;;;;;;25.77;45.79;93357.13;4787688;29;7428;-71
2023/01/08 12:00:38;;;;;;;;;;;;;;;25.81;45.26;93343.75;4774893;30;8760;-71
2023/01/08 12:03:47;;;;;;;;;;;;;;;25.84;45.46;93333.63;4786290;29;9301;-71
2023/01/08 12:06:57;;;;;;;;;;;;;;;25.87;45.16;93336.09;4793244;29;7459;-71
2023/01/08 12:10:12;;;;;;;;;;;;;;;25.89;44.41;93328.00;4784296;30;9033;-71
2023/01/08 12:12:50;;;;;;;;;;;;;;;25.90;44.59;93312.94;4858772;29;7031;-71
2023/01/08 12:15:59;;;;;;;;;;;;;;;25.88;44.17;93307.25;4858068;29;7267;-71
2023/01/08 12:18:48;;;;;;;;;;;;;;;25.86;44.46;93306.31;4857981;29;7080;-71
2023/01/08 12:21:59;;;;;;;;;;;;;;;25.83;44.92;93302.63;4858320;29;8783;-71
2023/01/08 12:24:47;;;;;;;;;;;;;;;25.83;44.65;93299.88;4799653;29;7287;-72
2023/01/08 12:28:02;;;;;;;;;;;;;;;25.82;44.23;93314.91;4801714;29;7010;-71
2023/01/08 12:30:45;;;;;;;;;;;;;;;25.82;44.80;93309.41;4825432;29;9079;-72
2023/01/08 12:33:33;;;;;;;;;;;;;;;25.82;44.67;93319.66;4839704;29;9090;-72
2023/01/08 12:36:08;;;;;;;;;;;;;;;25.83;45.11;93305.38;4837484;29;7367;-71
2023/01/08 12:38:43;;;;;;;;;;;;;;;25.85;44.70;93300.06;4837899;29;9541;-73
2023/01/08 12:41:18;;;;;;;;;;;;;;;25.82;44.21;93298.38;4821275;29;7205;-71
2023/01/08 12:44:10;;;;;;;;;;;;;;;25.85;45.03;93291.06;4815463;29;7547;-71
2023/01/08 12:46:45;;;;;;;;;;;;;;;25.84;44.87;93290.31;4830767;29;7173;-72
2023/01/08 12:49:20;;;;;;;;;;;;;;;25.87;43.71;93296.78;4816213;29;7342;-72
2023/01/08 12:51:57;;;;;;;;;;;;;;;25.86;43.51;93298.78;4822619;29;9083;-71
2023/01/08 12:54:23;;;;;;;;;;;;;;;25.86;43.99;93287.75;4821703;29;8217;-71
2023/01/08 12:57:27;;;;;;;;;;;;;;;25.84;43.72;93284.06;4833554;29;7027;-72
2023/01/08 13:00:18;;;;;;;;;;;;;;;25.83;43.26;93288.09;4831743;29;9414;-72
2023/01/08 13:03:17;;;;;;;;;;;;;;;25.82;43.07;93284.59;4908058;29;9381;-72
2023/01/08 13:05:45;;;;;;;;;;;;;;;25.83;43.47;93294.34;4894384;29;7312;-72
2023/01/08 13:08:40;;;;;;;;;;;;;;;25.85;42.93;93289.06;4971835;28;9005;-72
2023/01/08 13:11:08;;;;;;;;;;;;;;;25.82;42.94;93281.84;4972848;28;7026;-72
2023/01/08 13:13:44;;;;;;;;;;;;;;;25.79;43.62;93282.94;4974056;28;7052;-72
2023/01/08 13:16:23;;;;;;;;;;;;;;;25.78;43.56;93286.97;4962853;28;7843;-72
2023/01/08 13:19:01;;;;;;;;;;;;;;;25.79;42.86;93288.47;4968505;28;7038;-72
2023/01/08 13:21:51;;;;;;;;;;;;;;;25.80;43.80;93291.94;4971047;28;8274;-71
2023/01/08 13:24:36;;;;;;;;;;;;;;;25.82;43.64;93295.63;4984093;28;7061;-71
2023/01/08 13:27:31;;;;;;;;;;;;;;;25.83;43.35;93296.38;4969748;28;7270;-71
2023/01/08 13:29:57;;;;;;;;;;;;;;;25.84;42.77;93289.56;4901855;29;9111;-71
2023/01/08 13:32:39;;;;;;;;;;;;;;;25.84;43.32;93281.31;4897261;29;9596;-70